Ozone, Tennessee
Current Conditions -  °F | °C
As of 3:24 AM on Monday 24 Nov 2014 (Local Time) from KCSV Reporting Station
Broken Clouds Broken Clouds  
Wind Chill: 60°   Ceiling: 2800
Heat Index: 60°   Visibility: 10mi
Dew Point: 52°   Wind: 13mph
Humidity: 75%   Direction: 190°S
Pressure: 29.6"   Gusts: 26mph
Location:  35.88°N, 84.81°W
Report Text: KCSV 240924Z AUTO 19011G23KT 10SM FEW017 BKN028 16/11 A2960 RMK AO2 T01560111
Loading
Personal Weather Stations






























Interactive Weather Map New forecast layout! Learn more

10-Day Weather Forecast

Advertisements
Track Severe Weather on mobile